sensor_id;sensor_type;location;lat;lon;timestamp;temperature;humidity
7159;DHT22;63175;52.374;13.132;2023-10-13T00:01:20;14.70;99.90
7159;DHT22;63175;52.374;13.132;2023-10-13T00:03:47;14.70;99.90
7159;DHT22;63175;52.374;13.132;2023-10-13T00:06:14;14.70;99.90
7159;DHT22;63175;52.374;13.132;2023-10-13T00:08:42;14.70;99.90
7159;DHT22;63175;52.374;13.132;2023-10-13T00:11:12;14.70;99.90
7159;DHT22;63175;52.374;13.132;2023-10-13T00:13:39;14.70;99.90
7159;DHT22;63175;52.374;13.132;2023-10-13T00:16:16;14.70;99.90
7159;DHT22;63175;52.374;13.132;2023-10-13T00:18:47;14.60;99.90
7159;DHT22;63175;52.374;13.132;2023-10-13T00:21:14;14.60;99.90
7159;DHT22;63175;52.374;13.132;2023-10-13T00:23:47;14.60;99.90
7159;DHT22;63175;52.374;13.132;2023-10-13T00:26:20;14.60;99.90
7159;DHT22;63175;52.374;13.132;2023-10-13T00:28:50;14.60;99.90
7159;DHT22;63175;52.374;13.132;2023-10-13T00:31:25;14.60;99.90
7159;DHT22;63175;52.374;13.132;2023-10-13T00:33:54;14.50;99.90
7159;DHT22;63175;52.374;13.132;2023-10-13T00:36:26;14.50;99.90
7159;DHT22;63175;52.374;13.132;2023-10-13T00:38:54;14.60;99.90
7159;DHT22;63175;52.374;13.132;2023-10-13T00:41:21;14.50;99.90
7159;DHT22;63175;52.374;13.132;2023-10-13T00:44:08;14.50;99.90
7159;DHT22;63175;52.374;13.132;2023-10-13T00:46:36;14.50;99.90
7159;DHT22;63175;52.374;13.132;2023-10-13T00:49:04;14.50;99.90
7159;DHT22;63175;52.374;13.132;2023-10-13T00:51:31;14.50;99.90
7159;DHT22;63175;52.374;13.132;2023-10-13T00:54:05;14.50;99.90
7159;DHT22;63175;52.374;13.132;2023-10-13T00:56:38;14.50;99.90
7159;DHT22;63175;52.374;13.132;2023-10-13T00:59:13;14.40;99.90
7159;DHT22;63175;52.374;13.132;2023-10-13T01:01:39;14.50;99.90
7159;DHT22;63175;52.374;13.132;2023-10-13T01:04:10;14.40;99.90
7159;DHT22;63175;52.374;13.132;2023-10-13T01:06:38;14.40;99.90
7159;DHT22;63175;52.374;13.132;2023-10-13T01:09:06;14.40;99.90
7159;DHT22;63175;52.374;13.132;2023-10-13T01:11:43;14.40;99.90
7159;DHT22;63175;52.374;13.132;2023-10-13T01:14:10;14.40;99.90
7159;DHT22;63175;52.374;13.132;2023-10-13T01:16:37;14.40;99.90
7159;DHT22;63175;52.374;13.132;2023-10-13T01:19:09;14.40;99.90
7159;DHT22;63175;52.374;13.132;2023-10-13T01:21:37;14.40;99.90
7159;DHT22;63175;52.374;13.132;2023-10-13T01:24:08;14.40;99.90
7159;DHT22;63175;52.374;13.132;2023-10-13T01:26:34;14.40;99.90
7159;DHT22;63175;52.374;13.132;2023-10-13T01:29:05;14.30;99.90
7159;DHT22;63175;52.374;13.132;2023-10-13T01:31:37;14.30;99.90
7159;DHT22;63175;52.374;13.132;2023-10-13T01:34:11;14.30;99.90
7159;DHT22;63175;52.374;13.132;2023-10-13T01:36:38;14.30;99.90
7159;DHT22;63175;52.374;13.132;2023-10-13T01:39:07;14.30;99.90
7159;DHT22;63175;52.374;13.132;2023-10-13T01:41:37;14.30;99.90
7159;DHT22;63175;52.374;13.132;2023-10-13T01:44:05;14.30;99.90
7159;DHT22;63175;52.374;13.132;2023-10-13T01:46:31;14.30;99.90
7159;DHT22;63175;52.374;13.132;2023-10-13T01:49:02;14.40;99.90
7159;DHT22;63175;52.374;13.132;2023-10-13T01:51:28;14.40;99.90
7159;DHT22;63175;52.374;13.132;2023-10-13T01:53:55;14.40;99.90
7159;DHT22;63175;52.374;13.132;2023-10-13T01:56:23;14.30;99.90
7159;DHT22;63175;52.374;13.132;2023-10-13T01:58:51;14.30;99.90
7159;DHT22;63175;52.374;13.132;2023-10-13T02:01:17;14.30;99.90
7159;DHT22;63175;52.374;13.132;2023-10-13T02:03:52;14.30;99.90
7159;DHT22;63175;52.374;13.132;2023-10-13T02:06:27;14.40;99.90
7159;DHT22;63175;52.374;13.132;2023-10-13T02:08:58;14.40;99.90
7159;DHT22;63175;52.374;13.132;2023-10-13T02:11:30;14.40;99.90
7159;DHT22;63175;52.374;13.132;2023-10-13T02:13:57;14.40;99.90
7159;DHT22;63175;52.374;13.132;2023-10-13T02:16:23;14.40;99.90
7159;DHT22;63175;52.374;13.132;2023-10-13T02:18:51;14.40;99.90
7159;DHT22;63175;52.374;13.132;2023-10-13T02:21:17;14.40;99.90
7159;DHT22;63175;52.374;13.132;2023-10-13T02:23:44;14.30;99.90
7159;DHT22;63175;52.374;13.132;2023-10-13T02:26:11;14.30;99.90
7159;DHT22;63175;52.374;13.132;2023-10-13T02:28:41;14.30;99.90
7159;DHT22;63175;52.374;13.132;2023-10-13T02:31:10;14.40;99.90
7159;DHT22;63175;52.374;13.132;2023-10-13T02:33:37;14.30;99.90
7159;DHT22;63175;52.374;13.132;2023-10-13T02:36:10;14.30;99.90
7159;DHT22;63175;52.374;13.132;2023-10-13T02:38:38;14.40;99.90
7159;DHT22;63175;52.374;13.132;2023-10-13T02:41:12;14.40;99.90
7159;DHT22;63175;52.374;13.132;2023-10-13T02:43:38;14.40;99.90
7159;DHT22;63175;52.374;13.132;2023-10-13T02:46:06;14.40;99.90
7159;DHT22;63175;52.374;13.132;2023-10-13T02:48:32;14.40;99.90
7159;DHT22;63175;52.374;13.132;2023-10-13T02:51:05;14.40;99.90
7159;DHT22;63175;52.374;13.132;2023-10-13T02:53:41;14.40;99.90
7159;DHT22;63175;52.374;13.132;2023-10-13T02:56:08;14.40;99.90
7159;DHT22;63175;52.374;13.132;2023-10-13T02:58:34;14.50;99.90
7159;DHT22;63175;52.374;13.132;2023-10-13T03:01:12;14.50;99.90
7159;DHT22;63175;52.374;13.132;2023-10-13T03:03:54;14.50;99.90
7159;DHT22;63175;52.374;13.132;2023-10-13T03:06:22;14.50;99.90
7159;DHT22;63175;52.374;13.132;2023-10-13T03:08:49;14.50;99.90
7159;DHT22;63175;52.374;13.132;2023-10-13T03:11:15;14.40;99.90
7159;DHT22;63175;52.374;13.132;2023-10-13T03:13:47;14.50;99.90
7159;DHT22;63175;52.374;13.132;2023-10-13T03:16:15;14.40;99.90
7159;DHT22;63175;52.374;13.132;2023-10-13T03:18:43;14.50;99.90
7159;DHT22;63175;52.374;13.132;2023-10-13T03:21:20;14.50;99.90
7159;DHT22;63175;52.374;13.132;2023-10-13T03:23:57;14.50;99.90
7159;DHT22;63175;52.374;13.132;2023-10-13T03:26:31;14.50;99.90
7159;DHT22;63175;52.374;13.132;2023-10-13T03:29:02;14.50;99.90
7159;DHT22;63175;52.374;13.132;2023-10-13T03:31:31;14.50;99.90
7159;DHT22;63175;52.374;13.132;2023-10-13T03:34:04;14.60;99.90
7159;DHT22;63175;52.374;13.132;2023-10-13T03:36:31;14.50;99.90
7159;DHT22;63175;52.374;13.132;2023-10-13T03:39:15;14.50;99.90
7159;DHT22;63175;52.374;13.132;2023-10-13T03:41:42;14.50;99.90
7159;DHT22;63175;52.374;13.132;2023-10-13T03:44:10;14.50;99.90
7159;DHT22;63175;52.374;13.132;2023-10-13T03:46:45;14.50;99.90
7159;DHT22;63175;52.374;13.132;2023-10-13T03:49:14;14.50;99.90
7159;DHT22;63175;52.374;13.132;2023-10-13T03:51:46;14.50;99.90
7159;DHT22;63175;52.374;13.132;2023-10-13T03:54:14;14.50;99.90
7159;DHT22;63175;52.374;13.132;2023-10-13T03:56:43;14.50;99.90
7159;DHT22;63175;52.374;13.132;2023-10-13T03:59:11;14.50;99.90
7159;DHT22;63175;52.374;13.132;2023-10-13T04:01:46;14.50;99.90
7159;DHT22;63175;52.374;13.132;2023-10-13T04:04:24;14.50;99.90
7159;DHT22;63175;52.374;13.132;2023-10-13T04:07:07;14.50;99.90
7159;DHT22;63175;52.374;13.132;2023-10-13T04:10:01;14.50;99.90
7159;DHT22;63175;52.374;13.132;2023-10-13T04:12:46;14.50;99.90
7159;DHT22;63175;52.374;13.132;2023-10-13T04:15:30;14.50;99.90
7159;DHT22;63175;52.374;13.132;2023-10-13T04:18:09;14.50;99.90
7159;DHT22;63175;52.374;13.132;2023-10-13T04:20:53;14.50;99.90
7159;DHT22;63175;52.374;13.132;2023-10-13T04:23:33;14.50;99.90
7159;DHT22;63175;52.374;13.132;2023-10-13T04:26:20;14.50;99.90
7159;DHT22;63175;52.374;13.132;2023-10-13T04:28:47;14.50;99.90
7159;DHT22;63175;52.374;13.132;2023-10-13T04:31:21;14.50;99.90
7159;DHT22;63175;52.374;13.132;2023-10-13T04:34:12;14.50;99.90
7159;DHT22;63175;52.374;13.132;2023-10-13T04:36:53;14.50;99.90
7159;DHT22;63175;52.374;13.132;2023-10-13T04:39:36;14.50;99.90
7159;DHT22;63175;52.374;13.132;2023-10-13T04:42:05;14.50;99.90
7159;DHT22;63175;52.374;13.132;2023-10-13T04:44:39;14.50;99.90
7159;DHT22;63175;52.374;13.132;2023-10-13T04:47:18;14.50;99.90
7159;DHT22;63175;52.374;13.132;2023-10-13T04:49:48;14.50;99.90
7159;DHT22;63175;52.374;13.132;2023-10-13T04:52:18;14.60;99.90
7159;DHT22;63175;52.374;13.132;2023-10-13T04:55:06;14.60;99.90
7159;DHT22;63175;52.374;13.132;2023-10-13T04:57:43;14.60;99.90
7159;DHT22;63175;52.374;13.132;2023-10-13T05:00:14;14.60;99.90
7159;DHT22;63175;52.374;13.132;2023-10-13T05:02:58;14.60;99.90
7159;DHT22;63175;52.374;13.132;2023-10-13T05:05:44;14.70;99.90
7159;DHT22;63175;52.374;13.132;2023-10-13T05:08:32;14.70;99.90
7159;DHT22;63175;52.374;13.132;2023-10-13T05:11:16;14.70;99.90
7159;DHT22;63175;52.374;13.132;2023-10-13T05:14:00;14.70;99.90
7159;DHT22;63175;52.374;13.132;2023-10-13T05:16:44;14.70;99.90
7159;DHT22;63175;52.374;13.132;2023-10-13T05:19:28;14.70;99.90
7159;DHT22;63175;52.374;13.132;2023-10-13T05:22:14;14.70;99.90
7159;DHT22;63175;52.374;13.132;2023-10-13T05:24:58;14.70;99.90
7159;DHT22;63175;52.374;13.132;2023-10-13T05:27:42;14.70;99.90
7159;DHT22;63175;52.374;13.132;2023-10-13T05:30:26;14.70;99.90
7159;DHT22;63175;52.374;13.132;2023-10-13T05:33:10;14.70;99.90
7159;DHT22;63175;52.374;13.132;2023-10-13T05:35:54;14.70;99.90
7159;DHT22;63175;52.374;13.132;2023-10-13T05:38:36;14.70;99.90
7159;DHT22;63175;52.374;13.132;2023-10-13T05:41:22;14.70;99.90
7159;DHT22;63175;52.374;13.132;2023-10-13T05:44:06;14.70;99.90
7159;DHT22;63175;52.374;13.132;2023-10-13T05:47:05;14.70;99.90
7159;DHT22;63175;52.374;13.132;2023-10-13T05:49:51;14.70;99.90
7159;DHT22;63175;52.374;13.132;2023-10-13T05:52:30;14.70;99.90
7159;DHT22;63175;52.374;13.132;2023-10-13T05:55:16;14.70;99.90
7159;DHT22;63175;52.374;13.132;2023-10-13T05:58:12;14.70;99.90
7159;DHT22;63175;52.374;13.132;2023-10-13T06:00:57;14.70;99.90
7159;DHT22;63175;52.374;13.132;2023-10-13T06:03:42;14.80;99.90
7159;DHT22;63175;52.374;13.132;2023-10-13T06:06:26;14.80;99.90
7159;DHT22;63175;52.374;13.132;2023-10-13T06:09:10;14.80;99.90
7159;DHT22;63175;52.374;13.132;2023-10-13T06:11:56;14.90;99.90
7159;DHT22;63175;52.374;13.132;2023-10-13T06:14:40;14.90;99.90
7159;DHT22;63175;52.374;13.132;2023-10-13T06:17:24;15.00;99.90
7159;DHT22;63175;52.374;13.132;2023-10-13T06:20:09;15.10;99.90
7159;DHT22;63175;52.374;13.132;2023-10-13T06:22:54;15.10;99.90
7159;DHT22;63175;52.374;13.132;2023-10-13T06:25:38;15.20;99.90
7159;DHT22;63175;52.374;13.132;2023-10-13T06:28:23;15.20;99.90
7159;DHT22;63175;52.374;13.132;2023-10-13T06:31:13;15.40;99.90
7159;DHT22;63175;52.374;13.132;2023-10-13T06:33:47;15.40;99.90
7159;DHT22;63175;52.374;13.132;2023-10-13T06:36:14;15.50;99.90
7159;DHT22;63175;52.374;13.132;2023-10-13T06:38:43;15.50;99.90
7159;DHT22;63175;52.374;13.132;2023-10-13T06:41:10;15.60;99.90
7159;DHT22;63175;52.374;13.132;2023-10-13T06:43:46;15.70;99.90
7159;DHT22;63175;52.374;13.132;2023-10-13T06:46:28;15.80;99.90
7159;DHT22;63175;52.374;13.132;2023-10-13T06:48:59;16.00;99.90
7159;DHT22;63175;52.374;13.132;2023-10-13T06:51:28;16.20;99.90
7159;DHT22;63175;52.374;13.132;2023-10-13T06:54:04;16.30;99.90
7159;DHT22;63175;52.374;13.132;2023-10-13T06:56:35;16.50;99.90
7159;DHT22;63175;52.374;13.132;2023-10-13T06:59:06;16.70;99.90
7159;DHT22;63175;52.374;13.132;2023-10-13T07:01:33;16.80;99.90
7159;DHT22;63175;52.374;13.132;2023-10-13T07:04:05;16.80;99.90
7159;DHT22;63175;52.374;13.132;2023-10-13T07:06:39;16.80;99.90
7159;DHT22;63175;52.374;13.132;2023-10-13T07:09:08;16.80;99.90
7159;DHT22;63175;52.374;13.132;2023-10-13T07:11:41;16.80;99.90
7159;DHT22;63175;52.374;13.132;2023-10-13T07:14:10;16.80;99.90
7159;DHT22;63175;52.374;13.132;2023-10-13T07:16:43;16.80;99.90
7159;DHT22;63175;52.374;13.132;2023-10-13T07:19:12;16.80;99.90
7159;DHT22;63175;52.374;13.132;2023-10-13T07:21:43;16.70;99.90
7159;DHT22;63175;52.374;13.132;2023-10-13T07:24:11;16.70;99.90
7159;DHT22;63175;52.374;13.132;2023-10-13T07:26:38;16.80;99.90
7159;DHT22;63175;52.374;13.132;2023-10-13T07:29:12;16.80;99.90
7159;DHT22;63175;52.374;13.132;2023-10-13T07:31:40;16.80;99.90
7159;DHT22;63175;52.374;13.132;2023-10-13T07:34:10;16.80;99.90
7159;DHT22;63175;52.374;13.132;2023-10-13T07:36:48;16.80;99.90
7159;DHT22;63175;52.374;13.132;2023-10-13T07:39:15;16.80;99.90
7159;DHT22;63175;52.374;13.132;2023-10-13T07:41:51;16.80;99.90
7159;DHT22;63175;52.374;13.132;2023-10-13T07:44:21;16.90;99.90
7159;DHT22;63175;52.374;13.132;2023-10-13T07:46:52;16.90;99.90
7159;DHT22;63175;52.374;13.132;2023-10-13T07:49:28;17.00;99.90
7159;DHT22;63175;52.374;13.132;2023-10-13T07:51:57;17.10;99.90
7159;DHT22;63175;52.374;13.132;2023-10-13T07:54:26;17.20;99.90
7159;DHT22;63175;52.374;13.132;2023-10-13T07:56:53;17.30;99.90
7159;DHT22;63175;52.374;13.132;2023-10-13T07:59:22;17.30;99.90
7159;DHT22;63175;52.374;13.132;2023-10-13T08:01:50;17.30;99.90
7159;DHT22;63175;52.374;13.132;2023-10-13T08:04:37;17.20;99.90
7159;DHT22;63175;52.374;13.132;2023-10-13T08:07:04;17.20;99.90
7159;DHT22;63175;52.374;13.132;2023-10-13T08:09:39;17.20;99.90
7159;DHT22;63175;52.374;13.132;2023-10-13T08:12:07;17.20;99.90
7159;DHT22;63175;52.374;13.132;2023-10-13T08:14:39;17.20;99.90
7159;DHT22;63175;52.374;13.132;2023-10-13T08:17:07;17.20;99.90
7159;DHT22;63175;52.374;13.132;2023-10-13T08:19:36;17.30;99.90
7159;DHT22;63175;52.374;13.132;2023-10-13T08:22:10;17.40;99.90
7159;DHT22;63175;52.374;13.132;2023-10-13T08:24:51;17.40;99.90
7159;DHT22;63175;52.374;13.132;2023-10-13T08:27:40;17.50;99.90
7159;DHT22;63175;52.374;13.132;2023-10-13T08:30:17;17.50;99.90
7159;DHT22;63175;52.374;13.132;2023-10-13T08:32:55;17.50;99.90
7159;DHT22;63175;52.374;13.132;2023-10-13T08:35:22;17.50;99.90
7159;DHT22;63175;52.374;13.132;2023-10-13T08:37:50;17.50;99.90
7159;DHT22;63175;52.374;13.132;2023-10-13T08:40:29;17.50;99.90
7159;DHT22;63175;52.374;13.132;2023-10-13T08:43:14;17.60;99.90
7159;DHT22;63175;52.374;13.132;2023-10-13T08:45:43;17.60;99.90
7159;DHT22;63175;52.374;13.132;2023-10-13T08:48:19;17.60;99.90
7159;DHT22;63175;52.374;13.132;2023-10-13T08:50:52;17.60;99.90
7159;DHT22;63175;52.374;13.132;2023-10-13T08:53:22;17.60;99.90
7159;DHT22;63175;52.374;13.132;2023-10-13T08:55:58;17.60;99.90
7159;DHT22;63175;52.374;13.132;2023-10-13T08:58:31;17.60;99.90
7159;DHT22;63175;52.374;13.132;2023-10-13T09:01:18;17.60;99.90
7159;DHT22;63175;52.374;13.132;2023-10-13T09:03:58;17.50;99.90
7159;DHT22;63175;52.374;13.132;2023-10-13T09:06:48;17.50;99.90
7159;DHT22;63175;52.374;13.132;2023-10-13T09:09:26;17.50;99.90
7159;DHT22;63175;52.374;13.132;2023-10-13T09:12:00;17.50;99.90
7159;DHT22;63175;52.374;13.132;2023-10-13T09:14:34;17.50;99.90
7159;DHT22;63175;52.374;13.132;2023-10-13T09:17:06;17.60;99.90
7159;DHT22;63175;52.374;13.132;2023-10-13T09:19:48;17.60;99.90
7159;DHT22;63175;52.374;13.132;2023-10-13T09:22:22;17.60;99.90
7159;DHT22;63175;52.374;13.132;2023-10-13T09:25:01;17.60;99.90
7159;DHT22;63175;52.374;13.132;2023-10-13T09:27:33;17.60;99.90
7159;DHT22;63175;52.374;13.132;2023-10-13T09:30:04;17.60;99.90
7159;DHT22;63175;52.374;13.132;2023-10-13T09:32:36;17.60;99.90
7159;DHT22;63175;52.374;13.132;2023-10-13T09:35:16;17.60;99.90
7159;DHT22;63175;52.374;13.132;2023-10-13T09:37:43;17.60;99.90
7159;DHT22;63175;52.374;13.132;2023-10-13T09:40:15;17.60;99.90
7159;DHT22;63175;52.374;13.132;2023-10-13T09:42:51;17.60;99.90
7159;DHT22;63175;52.374;13.132;2023-10-13T09:45:23;17.70;99.90
7159;DHT22;63175;52.374;13.132;2023-10-13T09:47:55;17.70;99.90
7159;DHT22;63175;52.374;13.132;2023-10-13T09:50:25;17.70;99.90
7159;DHT22;63175;52.374;13.132;2023-10-13T09:53:00;17.80;99.90
7159;DHT22;63175;52.374;13.132;2023-10-13T09:55:29;17.80;99.90
7159;DHT22;63175;52.374;13.132;2023-10-13T09:58:02;17.80;99.90
7159;DHT22;63175;52.374;13.132;2023-10-13T10:00:39;18.00;99.90
7159;DHT22;63175;52.374;13.132;2023-10-13T10:03:23;18.00;99.90
7159;DHT22;63175;52.374;13.132;2023-10-13T10:06:08;18.10;99.90
7159;DHT22;63175;52.374;13.132;2023-10-13T10:08:43;18.20;99.90
7159;DHT22;63175;52.374;13.132;2023-10-13T10:11:47;18.20;99.90
7159;DHT22;63175;52.374;13.132;2023-10-13T10:14:16;18.20;99.90
7159;DHT22;63175;52.374;13.132;2023-10-13T10:16:56;18.20;99.90
7159;DHT22;63175;52.374;13.132;2023-10-13T10:19:28;18.20;99.90
7159;DHT22;63175;52.374;13.132;2023-10-13T10:22:01;18.20;99.90
7159;DHT22;63175;52.374;13.132;2023-10-13T10:24:36;18.20;99.90
7159;DHT22;63175;52.374;13.132;2023-10-13T10:27:04;18.20;99.90
7159;DHT22;63175;52.374;13.132;2023-10-13T10:29:31;18.20;99.90
7159;DHT22;63175;52.374;13.132;2023-10-13T10:31:58;18.10;99.90
7159;DHT22;63175;52.374;13.132;2023-10-13T10:34:31;18.10;99.90
7159;DHT22;63175;52.374;13.132;2023-10-13T10:36:59;18.10;99.90
7159;DHT22;63175;52.374;13.132;2023-10-13T10:39:35;18.10;99.90
7159;DHT22;63175;52.374;13.132;2023-10-13T10:42:11;18.10;99.90
7159;DHT22;63175;52.374;13.132;2023-10-13T10:44:43;18.20;99.90
7159;DHT22;63175;52.374;13.132;2023-10-13T10:47:13;18.20;99.90
7159;DHT22;63175;52.374;13.132;2023-10-13T10:49:46;18.20;99.90
7159;DHT22;63175;52.374;13.132;2023-10-13T10:52:17;18.20;99.90
7159;DHT22;63175;52.374;13.132;2023-10-13T10:54:45;18.20;99.90
7159;DHT22;63175;52.374;13.132;2023-10-13T10:57:17;18.20;99.90
7159;DHT22;63175;52.374;13.132;2023-10-13T10:59:44;18.20;99.90
7159;DHT22;63175;52.374;13.132;2023-10-13T11:02:11;18.20;99.90
7159;DHT22;63175;52.374;13.132;2023-10-13T11:04:41;18.20;99.90
7159;DHT22;63175;52.374;13.132;2023-10-13T11:07:22;18.20;99.90
7159;DHT22;63175;52.374;13.132;2023-10-13T11:09:50;18.20;99.90
7159;DHT22;63175;52.374;13.132;2023-10-13T11:12:30;18.20;99.90
7159;DHT22;63175;52.374;13.132;2023-10-13T11:15:01;18.20;99.90
7159;DHT22;63175;52.374;13.132;2023-10-13T11:17:28;18.20;99.90
7159;DHT22;63175;52.374;13.132;2023-10-13T11:20:11;18.30;99.90
7159;DHT22;63175;52.374;13.132;2023-10-13T11:22:45;18.30;99.90
7159;DHT22;63175;52.374;13.132;2023-10-13T11:25:21;18.40;99.90
7159;DHT22;63175;52.374;13.132;2023-10-13T11:27:49;18.40;99.90
7159;DHT22;63175;52.374;13.132;2023-10-13T11:30:24;18.40;99.90
7159;DHT22;63175;52.374;13.132;2023-10-13T11:33:08;18.50;99.90
7159;DHT22;63175;52.374;13.132;2023-10-13T11:35:37;18.50;99.90
7159;DHT22;63175;52.374;13.132;2023-10-13T11:38:23;18.60;99.90
7159;DHT22;63175;52.374;13.132;2023-10-13T11:40:54;18.60;99.90
7159;DHT22;63175;52.374;13.132;2023-10-13T11:43:38;18.60;99.90
7159;DHT22;63175;52.374;13.132;2023-10-13T11:46:19;18.70;99.90
7159;DHT22;63175;52.374;13.132;2023-10-13T11:49:02;18.80;99.90
7159;DHT22;63175;52.374;13.132;2023-10-13T11:51:43;18.80;99.90
7159;DHT22;63175;52.374;13.132;2023-10-13T11:54:12;18.90;99.90
7159;DHT22;63175;52.374;13.132;2023-10-13T11:56:39;19.00;99.90
7159;DHT22;63175;52.374;13.132;2023-10-13T11:59:05;19.00;99.90
7159;DHT22;63175;52.374;13.132;2023-10-13T12:01:42;19.10;99.90
7159;DHT22;63175;52.374;13.132;2023-10-13T12:04:26;19.10;99.90
7159;DHT22;63175;52.374;13.132;2023-10-13T12:07:06;19.20;99.90
7159;DHT22;63175;52.374;13.132;2023-10-13T12:09:45;19.20;99.90
7159;DHT22;63175;52.374;13.132;2023-10-13T12:12:29;19.30;99.90
7159;DHT22;63175;52.374;13.132;2023-10-13T12:14:57;19.30;99.90
7159;DHT22;63175;52.374;13.132;2023-10-13T12:17:34;19.30;99.90
7159;DHT22;63175;52.374;13.132;2023-10-13T12:20:02;19.40;99.90
7159;DHT22;63175;52.374;13.132;2023-10-13T12:22:30;19.40;99.90
7159;DHT22;63175;52.374;13.132;2023-10-13T12:25:06;19.40;99.90
7159;DHT22;63175;52.374;13.132;2023-10-13T12:27:45;19.50;99.90
7159;DHT22;63175;52.374;13.132;2023-10-13T12:30:14;19.50;99.90
7159;DHT22;63175;52.374;13.132;2023-10-13T12:32:48;19.60;99.90
7159;DHT22;63175;52.374;13.132;2023-10-13T12:35:24;19.60;99.90
7159;DHT22;63175;52.374;13.132;2023-10-13T12:37:55;19.70;99.90
7159;DHT22;63175;52.374;13.132;2023-10-13T12:40:31;19.80;99.90
7159;DHT22;63175;52.374;13.132;2023-10-13T12:43:16;19.90;99.90
7159;DHT22;63175;52.374;13.132;2023-10-13T12:46:00;20.00;99.90
7159;DHT22;63175;52.374;13.132;2023-10-13T12:48:44;20.10;99.90
7159;DHT22;63175;52.374;13.132;2023-10-13T12:51:29;20.20;99.90
7159;DHT22;63175;52.374;13.132;2023-10-13T12:54:17;20.20;99.90
7159;DHT22;63175;52.374;13.132;2023-10-13T12:56:50;20.30;99.90
7159;DHT22;63175;52.374;13.132;2023-10-13T12:59:22;20.40;99.90
7159;DHT22;63175;52.374;13.132;2023-10-13T13:01:52;20.40;99.90
7159;DHT22;63175;52.374;13.132;2023-10-13T13:04:19;20.50;99.90
7159;DHT22;63175;52.374;13.132;2023-10-13T13:06:47;20.60;99.90
7159;DHT22;63175;52.374;13.132;2023-10-13T13:09:13;20.70;99.90
7159;DHT22;63175;52.374;13.132;2023-10-13T13:11:41;20.70;99.90
7159;DHT22;63175;52.374;13.132;2023-10-13T13:14:09;20.90;99.90
7159;DHT22;63175;52.374;13.132;2023-10-13T13:16:36;20.90;99.90
7159;DHT22;63175;52.374;13.132;2023-10-13T13:19:05;21.10;99.90
7159;DHT22;63175;52.374;13.132;2023-10-13T13:21:37;21.20;99.90
7159;DHT22;63175;52.374;13.132;2023-10-13T13:24:04;21.30;99.90
7159;DHT22;63175;52.374;13.132;2023-10-13T13:26:36;21.50;99.90
7159;DHT22;63175;52.374;13.132;2023-10-13T13:29:05;21.50;99.90
7159;DHT22;63175;52.374;13.132;2023-10-13T13:31:36;21.60;99.90
7159;DHT22;63175;52.374;13.132;2023-10-13T13:34:07;21.60;99.90
7159;DHT22;63175;52.374;13.132;2023-10-13T13:36:36;21.60;99.90
7159;DHT22;63175;52.374;13.132;2023-10-13T13:39:03;21.60;99.90
7159;DHT22;63175;52.374;13.132;2023-10-13T13:41:31;21.60;99.90
7159;DHT22;63175;52.374;13.132;2023-10-13T13:43:58;21.60;99.90
7159;DHT22;63175;52.374;13.132;2023-10-13T13:46:40;21.60;99.90
7159;DHT22;63175;52.374;13.132;2023-10-13T13:49:09;21.70;99.90
7159;DHT22;63175;52.374;13.132;2023-10-13T13:51:44;21.80;99.90
7159;DHT22;63175;52.374;13.132;2023-10-13T13:54:18;22.00;99.90
7159;DHT22;63175;52.374;13.132;2023-10-13T13:56:45;22.10;99.90
7159;DHT22;63175;52.374;13.132;2023-10-13T13:59:11;22.30;99.90
7159;DHT22;63175;52.374;13.132;2023-10-13T14:01:42;22.30;99.90
7159;DHT22;63175;52.374;13.132;2023-10-13T14:04:10;22.40;99.90
7159;DHT22;63175;52.374;13.132;2023-10-13T14:06:39;22.50;99.90
7159;DHT22;63175;52.374;13.132;2023-10-13T14:09:06;22.50;99.90
7159;DHT22;63175;52.374;13.132;2023-10-13T14:11:41;22.60;99.90
7159;DHT22;63175;52.374;13.132;2023-10-13T14:14:26;22.60;99.90
7159;DHT22;63175;52.374;13.132;2023-10-13T14:17:00;22.50;99.90
7159;DHT22;63175;52.374;13.132;2023-10-13T14:19:34;22.50;99.90
7159;DHT22;63175;52.374;13.132;2023-10-13T14:22:05;22.40;99.90
7159;DHT22;63175;52.374;13.132;2023-10-13T14:24:34;22.40;99.90
7159;DHT22;63175;52.374;13.132;2023-10-13T14:27:02;22.30;99.90
7159;DHT22;63175;52.374;13.132;2023-10-13T14:29:34;22.30;99.90
7159;DHT22;63175;52.374;13.132;2023-10-13T14:32:07;22.30;99.90
7159;DHT22;63175;52.374;13.132;2023-10-13T14:34:38;22.20;99.90
7159;DHT22;63175;52.374;13.132;2023-10-13T14:37:06;22.20;99.90
7159;DHT22;63175;52.374;13.132;2023-10-13T14:39:33;22.10;99.90
7159;DHT22;63175;52.374;13.132;2023-10-13T14:42:02;22.10;99.90
7159;DHT22;63175;52.374;13.132;2023-10-13T14:44:31;22.00;99.90
7159;DHT22;63175;52.374;13.132;2023-10-13T14:46:58;21.90;99.90
7159;DHT22;63175;52.374;13.132;2023-10-13T14:49:27;21.90;99.90
7159;DHT22;63175;52.374;13.132;2023-10-13T14:51:54;21.80;99.90
7159;DHT22;63175;52.374;13.132;2023-10-13T14:54:21;21.80;99.90
7159;DHT22;63175;52.374;13.132;2023-10-13T14:56:59;21.70;99.90
7159;DHT22;63175;52.374;13.132;2023-10-13T14:59:26;21.70;99.90
7159;DHT22;63175;52.374;13.132;2023-10-13T15:01:59;21.70;99.90
7159;DHT22;63175;52.374;13.132;2023-10-13T15:04:28;21.70;99.90
7159;DHT22;63175;52.374;13.132;2023-10-13T15:06:58;21.60;99.90
7159;DHT22;63175;52.374;13.132;2023-10-13T15:09:27;21.60;99.90
7159;DHT22;63175;52.374;13.132;2023-10-13T15:11:54;21.60;99.90
7159;DHT22;63175;52.374;13.132;2023-10-13T15:14:21;21.60;99.90
7159;DHT22;63175;52.374;13.132;2023-10-13T15:16:48;21.50;99.90
7159;DHT22;63175;52.374;13.132;2023-10-13T15:19:16;21.50;99.90
7159;DHT22;63175;52.374;13.132;2023-10-13T15:21:44;21.50;99.90
7159;DHT22;63175;52.374;13.132;2023-10-13T15:24:15;21.40;99.90
7159;DHT22;63175;52.374;13.132;2023-10-13T15:26:42;21.40;99.90
7159;DHT22;63175;52.374;13.132;2023-10-13T15:29:14;21.30;99.90
7159;DHT22;63175;52.374;13.132;2023-10-13T15:31:42;21.30;99.90
